sensor_id;sensor_type;location;lat;lon;timestamp;P1;durP1;ratioP1;P2;durP2;ratioP2
56413;SDS011;42318;48.452;19.526;2023-04-01T00:03:58;2.38;;;1.65;;
56413;SDS011;42318;48.452;19.526;2023-04-01T00:11:29;2.30;;;1.70;;
56413;SDS011;42318;48.452;19.526;2023-04-01T00:19:00;2.90;;;1.58;;
56413;SDS011;42318;48.452;19.526;2023-04-01T00:26:31;2.47;;;1.50;;
56413;SDS011;42318;48.452;19.526;2023-04-01T00:34:02;2.25;;;1.67;;
56413;SDS011;42318;48.452;19.526;2023-04-01T00:41:32;2.63;;;1.42;;
56413;SDS011;42318;48.452;19.526;2023-04-01T00:49:03;2.65;;;1.83;;
56413;SDS011;42318;48.452;19.526;2023-04-01T00:56:38;2.47;;;2.05;;
56413;SDS011;42318;48.452;19.526;2023-04-01T01:04:26;2.45;;;1.45;;
56413;SDS011;42318;48.452;19.526;2023-04-01T01:12:10;2.22;;;1.50;;
56413;SDS011;42318;48.452;19.526;2023-04-01T01:19:50;1.95;;;1.50;;
56413;SDS011;42318;48.452;19.526;2023-04-01T01:27:32;1.95;;;1.58;;
56413;SDS011;42318;48.452;19.526;2023-04-01T01:42:50;2.55;;;1.50;;
56413;SDS011;42318;48.452;19.526;2023-04-01T01:50:25;2.63;;;1.73;;
56413;SDS011;42318;48.452;19.526;2023-04-01T01:58:05;3.17;;;1.55;;
56413;SDS011;42318;48.452;19.526;2023-04-01T02:06:00;2.07;;;1.53;;
56413;SDS011;42318;48.452;19.526;2023-04-01T02:13:43;2.63;;;1.73;;
56413;SDS011;42318;48.452;19.526;2023-04-01T02:21:14;2.05;;;1.40;;
56413;SDS011;42318;48.452;19.526;2023-04-01T02:28:47;1.65;;;1.25;;
56413;SDS011;42318;48.452;19.526;2023-04-01T02:36:19;1.90;;;1.40;;
56413;SDS011;42318;48.452;19.526;2023-04-01T02:43:51;1.70;;;1.20;;
56413;SDS011;42318;48.452;19.526;2023-04-01T02:51:22;2.00;;;1.25;;
56413;SDS011;42318;48.452;19.526;2023-04-01T02:58:53;1.50;;;1.15;;
56413;SDS011;42318;48.452;19.526;2023-04-01T03:06:24;1.77;;;1.30;;
56413;SDS011;42318;48.452;19.526;2023-04-01T03:13:55;2.40;;;1.50;;
56413;SDS011;42318;48.452;19.526;2023-04-01T03:21:26;2.03;;;1.30;;
56413;SDS011;42318;48.452;19.526;2023-04-01T03:28:57;2.70;;;1.40;;
56413;SDS011;42318;48.452;19.526;2023-04-01T03:36:27;1.95;;;1.30;;
56413;SDS011;42318;48.452;19.526;2023-04-01T03:43:58;2.10;;;1.30;;
56413;SDS011;42318;48.452;19.526;2023-04-01T03:51:29;2.00;;;1.30;;
56413;SDS011;42318;48.452;19.526;2023-04-01T03:59:01;1.95;;;1.35;;
56413;SDS011;42318;48.452;19.526;2023-04-01T04:06:33;1.40;;;1.30;;
56413;SDS011;42318;48.452;19.526;2023-04-01T04:14:04;1.50;;;1.10;;
56413;SDS011;42318;48.452;19.526;2023-04-01T04:21:35;1.73;;;1.23;;
56413;SDS011;42318;48.452;19.526;2023-04-01T04:29:06;1.65;;;0.98;;
56413;SDS011;42318;48.452;19.526;2023-04-01T04:36:37;1.83;;;1.30;;
56413;SDS011;42318;48.452;19.526;2023-04-01T04:44:07;1.42;;;1.10;;
56413;SDS011;42318;48.452;19.526;2023-04-01T04:51:38;1.90;;;1.13;;
56413;SDS011;42318;48.452;19.526;2023-04-01T04:59:09;1.58;;;1.20;;
56413;SDS011;42318;48.452;19.526;2023-04-01T05:06:42;1.95;;;1.10;;
56413;SDS011;42318;48.452;19.526;2023-04-01T05:14:14;1.50;;;1.00;;
56413;SDS011;42318;48.452;19.526;2023-04-01T05:21:46;1.42;;;1.20;;
56413;SDS011;42318;48.452;19.526;2023-04-01T05:29:17;1.45;;;1.05;;
56413;SDS011;42318;48.452;19.526;2023-04-01T05:36:48;1.75;;;0.90;;
56413;SDS011;42318;48.452;19.526;2023-04-01T05:44:19;1.38;;;1.20;;
56413;SDS011;42318;48.452;19.526;2023-04-01T05:51:49;1.98;;;1.17;;
56413;SDS011;42318;48.452;19.526;2023-04-01T05:59:21;1.73;;;1.10;;
56413;SDS011;42318;48.452;19.526;2023-04-01T06:06:52;2.05;;;1.10;;
56413;SDS011;42318;48.452;19.526;2023-04-01T06:14:27;1.83;;;1.15;;
56413;SDS011;42318;48.452;19.526;2023-04-01T06:30:30;1.80;;;1.10;;
56413;SDS011;42318;48.452;19.526;2023-04-01T06:54:14;1.55;;;1.17;;
56413;SDS011;42318;48.452;19.526;2023-04-01T07:01:51;1.52;;;1.08;;
56413;SDS011;42318;48.452;19.526;2023-04-01T07:09:34;1.58;;;1.00;;
56413;SDS011;42318;48.452;19.526;2023-04-01T07:17:14;1.63;;;1.10;;
56413;SDS011;42318;48.452;19.526;2023-04-01T07:24:51;2.05;;;1.25;;
56413;SDS011;42318;48.452;19.526;2023-04-01T07:32:30;0.95;;;0.85;;
56413;SDS011;42318;48.452;19.526;2023-04-01T07:40:19;1.23;;;0.90;;
56413;SDS011;42318;48.452;19.526;2023-04-01T08:03:35;1.52;;;0.73;;
56413;SDS011;42318;48.452;19.526;2023-04-01T08:19:01;2.30;;;1.33;;
56413;SDS011;42318;48.452;19.526;2023-04-01T08:26:37;1.58;;;1.02;;
56413;SDS011;42318;48.452;19.526;2023-04-01T08:34:15;1.60;;;1.15;;
56413;SDS011;42318;48.452;19.526;2023-04-01T08:58:24;1.52;;;1.20;;
56413;SDS011;42318;48.452;19.526;2023-04-01T09:05:47;1.73;;;0.90;;
56413;SDS011;42318;48.452;19.526;2023-04-01T09:13:46;1.02;;;0.75;;
56413;SDS011;42318;48.452;19.526;2023-04-01T09:44:59;0.85;;;0.75;;
56413;SDS011;42318;48.452;19.526;2023-04-01T10:16:27;1.63;;;0.90;;
56413;SDS011;42318;48.452;19.526;2023-04-01T10:24:23;1.92;;;0.90;;
56413;SDS011;42318;48.452;19.526;2023-04-01T10:48:40;0.90;;;0.70;;
56413;SDS011;42318;48.452;19.526;2023-04-01T10:56:39;1.23;;;0.77;;
56413;SDS011;42318;48.452;19.526;2023-04-01T11:43:44;1.05;;;0.88;;
56413;SDS011;42318;48.452;19.526;2023-04-01T13:10:24;0.77;;;0.60;;
56413;SDS011;42318;48.452;19.526;2023-04-01T13:26:22;0.82;;;0.70;;
56413;SDS011;42318;48.452;19.526;2023-04-01T13:34:42;0.85;;;0.70;;
56413;SDS011;42318;48.452;19.526;2023-04-01T14:37:40;1.20;;;0.80;;
56413;SDS011;42318;48.452;19.526;2023-04-01T15:01:50;0.80;;;0.60;;
56413;SDS011;42318;48.452;19.526;2023-04-01T15:17:35;0.70;;;0.70;;
56413;SDS011;42318;48.452;19.526;2023-04-01T15:56:46;0.70;;;0.70;;
56413;SDS011;42318;48.452;19.526;2023-04-01T16:35:53;0.93;;;0.70;;
56413;SDS011;42318;48.452;19.526;2023-04-01T16:43:26;1.15;;;0.73;;
56413;SDS011;42318;48.452;19.526;2023-04-01T16:51:09;1.30;;;0.73;;
56413;SDS011;42318;48.452;19.526;2023-04-01T16:59:27;1.05;;;0.68;;
56413;SDS011;42318;48.452;19.526;2023-04-01T17:06:47;1.40;;;0.80;;
56413;SDS011;42318;48.452;19.526;2023-04-01T17:22:07;0.95;;;0.68;;
56413;SDS011;42318;48.452;19.526;2023-04-01T18:25:12;0.80;;;0.65;;
56413;SDS011;42318;48.452;19.526;2023-04-01T18:40:21;0.77;;;0.50;;
56413;SDS011;42318;48.452;19.526;2023-04-01T18:48:06;1.38;;;0.70;;
56413;SDS011;42318;48.452;19.526;2023-04-01T18:55:40;0.80;;;0.60;;
56413;SDS011;42318;48.452;19.526;2023-04-01T19:03:21;0.60;;;0.50;;
56413;SDS011;42318;48.452;19.526;2023-04-01T19:26:27;1.52;;;1.08;;
56413;SDS011;42318;48.452;19.526;2023-04-01T19:34:03;0.90;;;0.60;;
56413;SDS011;42318;48.452;19.526;2023-04-01T19:41:54;1.30;;;0.95;;
56413;SDS011;42318;48.452;19.526;2023-04-01T19:49:37;1.10;;;0.80;;
56413;SDS011;42318;48.452;19.526;2023-04-01T19:57:15;1.27;;;0.95;;
56413;SDS011;42318;48.452;19.526;2023-04-01T20:04:51;1.50;;;0.90;;
56413;SDS011;42318;48.452;19.526;2023-04-01T20:27:40;1.27;;;0.93;;
56413;SDS011;42318;48.452;19.526;2023-04-01T20:35:25;1.20;;;0.90;;
56413;SDS011;42318;48.452;19.526;2023-04-01T20:50:59;0.90;;;0.80;;
56413;SDS011;42318;48.452;19.526;2023-04-01T22:00:42;1.35;;;0.85;;
56413;SDS011;42318;48.452;19.526;2023-04-01T22:32:03;1.58;;;1.05;;
56413;SDS011;42318;48.452;19.526;2023-04-01T22:39:50;1.95;;;1.33;;
56413;SDS011;42318;48.452;19.526;2023-04-01T22:55:21;2.07;;;1.23;;
56413;SDS011;42318;48.452;19.526;2023-04-01T23:03:14;2.13;;;1.30;;
56413;SDS011;42318;48.452;19.526;2023-04-01T23:10:52;2.78;;;1.20;;
56413;SDS011;42318;48.452;19.526;2023-04-01T23:33:56;2.03;;;1.10;;
56413;SDS011;42318;48.452;19.526;2023-04-01T23:41:30;1.15;;;0.93;;
56413;SDS011;42318;48.452;19.526;2023-04-01T23:49:02;1.73;;;1.15;;
56413;SDS011;42318;48.452;19.526;2023-04-01T23:56:41;1.58;;;1.00;;
